createdAt,value
2018-01-24T00:02:07.834Z,1012.16
2018-01-24T00:03:00.129Z,1012.12
2018-01-24T00:04:53.209Z,1012.10
2018-01-24T00:05:53.146Z,1012.08
2018-01-24T00:07:46.271Z,1012.03
2018-01-24T00:08:46.165Z,1012.02
2018-01-24T00:10:39.250Z,1012.08
2018-01-24T00:11:39.189Z,1012.05
2018-01-24T00:13:32.306Z,1012.02
2018-01-24T00:14:32.209Z,1012.04
2018-01-24T00:16:25.235Z,1011.97
2018-01-24T00:17:25.132Z,1011.89
2018-01-24T00:19:18.309Z,1011.82
2018-01-24T00:20:18.246Z,1011.83
2018-01-24T00:22:13.054Z,1011.80
2018-01-24T00:23:11.273Z,1011.83
2018-01-24T00:25:04.350Z,1011.78
2018-01-24T00:26:04.288Z,1011.79
2018-01-24T00:27:57.406Z,1011.78
2018-01-24T00:28:57.313Z,1011.75
2018-01-24T00:30:50.395Z,1011.75
2018-01-24T00:31:50.332Z,1011.75
2018-01-24T00:38:19.466Z,1011.69
2018-01-24T00:39:19.405Z,1011.63
2018-01-24T00:41:12.489Z,1011.59
2018-01-24T00:48:01.606Z,1011.53
2018-01-24T00:49:01.477Z,1011.52
2018-01-24T00:54:02.315Z,1011.53
2018-01-24T00:59:19.935Z,1011.60
2018-01-24T01:08:19.661Z,1011.54
2018-01-24T01:12:08.769Z,1011.56
2018-01-24T01:13:08.660Z,1011.61
2018-01-24T01:15:01.740Z,1011.61
2018-01-24T01:16:01.680Z,1011.62
2018-01-24T01:17:54.807Z,1011.68
2018-01-24T01:18:54.694Z,1011.67
2018-01-24T01:20:47.776Z,1011.57
2018-01-24T01:21:47.756Z,1011.56
2018-01-24T01:23:40.834Z,1011.63
2018-01-24T01:24:40.734Z,1011.63
2018-01-24T01:26:33.824Z,1011.65
2018-01-24T01:27:33.764Z,1011.69
2018-01-24T01:29:26.887Z,1011.69
2018-01-24T01:30:26.779Z,1011.67
2018-01-24T01:32:19.901Z,1011.66
2018-01-24T01:33:19.800Z,1011.65
2018-01-24T01:35:12.882Z,1011.62
2018-01-24T01:36:12.820Z,1011.69
2018-01-24T01:38:05.952Z,1011.73
2018-01-24T01:39:05.820Z,1011.75
2018-01-24T01:43:01.780Z,1011.68
2018-01-24T01:43:32.709Z,1011.68
2018-01-24T01:47:00.947Z,1011.70
2018-01-24T01:47:57.921Z,1011.71
2018-01-24T01:51:26.634Z,1011.68
2018-01-24T01:55:07.783Z,1011.64
2018-01-24T02:03:32.096Z,1011.64
2018-01-24T02:07:18.128Z,1011.68
2018-01-24T02:08:18.061Z,1011.68
2018-01-24T02:11:43.183Z,1011.73
2018-01-24T02:12:43.086Z,1011.75
2018-01-24T02:14:36.189Z,1011.81
2018-01-24T02:15:36.101Z,1011.77
2018-01-24T02:17:29.206Z,1011.71
2018-01-24T02:18:29.118Z,1011.68
2018-01-24T02:20:22.199Z,1011.70
2018-01-24T02:24:07.296Z,1011.80
2018-01-24T02:25:07.187Z,1011.77
2018-01-24T02:27:00.272Z,1011.77
2018-01-24T02:28:00.212Z,1011.75
2018-01-24T02:29:53.328Z,1011.76
2018-01-24T02:30:53.251Z,1011.76
2018-01-24T02:32:46.223Z,1011.77
2018-01-24T02:33:46.219Z,1011.73
2018-01-24T02:35:39.364Z,1011.77
2018-01-24T02:36:39.263Z,1011.79
2018-01-24T02:38:32.382Z,1011.79
2018-01-24T02:42:18.384Z,1011.71
2018-01-24T02:43:18.322Z,1011.69
2018-01-24T02:45:11.446Z,1011.66
2018-01-24T02:46:11.342Z,1011.64
2018-01-24T02:49:57.408Z,1011.58
2018-01-24T02:51:36.310Z,1011.57
2018-01-24T02:52:29.378Z,1011.60
2018-01-24T02:54:22.462Z,1011.57
2018-01-24T02:56:35.523Z,1011.50
2018-01-24T03:00:54.808Z,1011.54
2018-01-24T03:06:00.635Z,1011.60
2018-01-24T03:07:53.338Z,1011.65
2018-01-24T03:08:53.334Z,1011.59
2018-01-24T03:12:32.824Z,1011.65
2018-01-24T03:13:17.593Z,1011.59
2018-01-24T03:15:10.667Z,1011.66
2018-01-24T03:16:10.599Z,1011.67
2018-01-24T03:19:35.679Z,1011.64
2018-01-24T03:20:35.585Z,1011.59
2018-01-24T03:22:44.527Z,1011.65
2018-01-24T03:24:41.758Z,1011.61
2018-01-24T03:25:44.558Z,1011.59
2018-01-24T03:27:49.526Z,1011.61
2018-01-24T03:29:51.151Z,1011.59
2018-01-24T03:30:47.683Z,1011.59
2018-01-24T03:32:40.792Z,1011.59
2018-01-24T03:33:40.698Z,1011.52
2018-01-24T03:37:06.846Z,1011.54
2018-01-24T03:38:06.736Z,1011.54
2018-01-24T03:41:32.764Z,1011.52
2018-01-24T03:42:32.758Z,1011.53
2018-01-24T03:47:29.932Z,1011.57
2018-01-24T03:48:29.823Z,1011.56
2018-01-24T03:50:22.952Z,1011.54
2018-01-24T03:51:22.917Z,1011.55
2018-01-24T03:53:16.718Z,1011.57
2018-01-24T03:54:15.862Z,1011.59
2018-01-24T03:56:10.242Z,1011.62
2018-01-24T03:57:08.884Z,1011.60
2018-01-24T03:59:02.021Z,1011.64
2018-01-24T04:00:01.924Z,1011.61
2018-01-24T04:02:01.787Z,1011.64
2018-01-24T04:02:54.910Z,1011.63
2018-01-24T04:04:48.034Z,1011.60
2018-01-24T04:08:55.008Z,1011.59
2018-01-24T04:12:35.727Z,1011.63
2018-01-24T04:12:58.733Z,1011.63
2018-01-24T04:14:52.135Z,1011.67
2018-01-24T04:15:52.018Z,1011.61
2018-01-24T04:17:45.107Z,1011.60
2018-01-24T04:18:45.043Z,1011.64
2018-01-24T04:20:38.161Z,1011.56
2018-01-24T04:21:38.060Z,1011.54
2018-01-24T04:23:31.143Z,1011.57
2018-01-24T04:26:11.551Z,1011.56
2018-01-24T04:26:44.092Z,1011.54
2018-01-24T04:27:59.193Z,1011.54
2018-01-24T04:28:43.983Z,1011.52
2018-01-24T04:29:43.931Z,1011.52
2018-01-24T04:30:44.065Z,1011.53
2018-01-24T04:31:43.803Z,1011.51
2018-01-24T04:32:43.745Z,1011.51
2018-01-24T04:33:43.686Z,1011.49
2018-01-24T04:34:43.625Z,1011.51
2018-01-24T04:37:22.240Z,1011.48
2018-01-24T04:38:16.166Z,1011.45
2018-01-24T04:40:09.248Z,1011.48
2018-01-24T04:41:09.319Z,1011.49
2018-01-24T04:43:02.304Z,1011.48
2018-01-24T04:45:36.273Z,1011.45
2018-01-24T04:47:08.335Z,1011.43
2018-01-24T04:48:08.236Z,1011.37
2018-01-24T04:50:01.297Z,1011.31
2018-01-24T04:51:01.401Z,1011.39
2018-01-24T04:52:54.378Z,1011.38
2018-01-24T04:53:54.281Z,1011.38
2018-01-24T04:55:47.368Z,1011.32
2018-01-24T04:56:47.304Z,1011.34
2018-01-24T04:58:40.417Z,1011.35
2018-01-24T04:59:40.320Z,1011.34
2018-01-24T05:01:33.404Z,1011.37
2018-01-24T05:02:33.340Z,1011.40
2018-01-24T05:04:26.462Z,1011.45
2018-01-24T05:05:26.370Z,1011.40
2018-01-24T05:07:19.478Z,1011.30
2018-01-24T05:08:22.406Z,1011.35
2018-01-24T05:10:12.461Z,1011.29
2018-01-24T05:11:12.595Z,1011.42
2018-01-24T05:13:05.535Z,1011.40
2018-01-24T05:14:05.430Z,1011.35
2018-01-24T05:15:58.557Z,1011.46
2018-01-24T05:16:58.461Z,1011.46
2018-01-24T05:18:51.572Z,1011.39
2018-01-24T05:19:51.470Z,1011.46
2018-01-24T05:21:44.555Z,1011.45
2018-01-24T05:22:44.493Z,1011.43
2018-01-24T05:24:37.615Z,1011.41
2018-01-24T05:25:37.513Z,1011.38
2018-01-24T05:27:30.601Z,1011.42
2018-01-24T05:28:30.537Z,1011.46
2018-01-24T05:30:23.705Z,1011.37
2018-01-24T05:31:23.554Z,1011.39
2018-01-24T05:33:16.683Z,1011.38
2018-01-24T05:34:16.578Z,1011.35
2018-01-24T05:36:09.666Z,1011.30
2018-01-24T05:37:09.596Z,1011.32
2018-01-24T05:39:15.541Z,1011.27
2018-01-24T05:40:02.673Z,1011.28
2018-01-24T05:41:55.703Z,1011.28
2018-01-24T05:42:55.640Z,1011.31
2018-01-24T05:44:48.765Z,1011.25
2018-01-24T05:45:48.660Z,1011.27
2018-01-24T05:47:41.745Z,1011.26
2018-01-24T05:48:41.682Z,1011.26
2018-01-24T05:50:34.804Z,1011.20
2018-01-24T05:51:34.702Z,1011.13
2018-01-24T05:53:27.790Z,1011.13
2018-01-24T05:54:27.726Z,1011.06
2018-01-24T05:56:20.843Z,1011.08
2018-01-24T05:57:20.750Z,1011.08
2018-01-24T05:59:13.829Z,1011.00
2018-01-24T06:00:13.765Z,1011.00
2018-01-24T06:02:06.894Z,1011.02
2018-01-24T06:03:06.787Z,1010.90
2018-01-24T06:04:59.871Z,1010.97
2018-01-24T06:05:59.807Z,1010.99
2018-01-24T06:07:52.934Z,1010.93
2018-01-24T06:08:52.835Z,1010.96
2018-01-24T06:10:45.955Z,1010.98
2018-01-24T06:11:45.851Z,1011.01
2018-01-24T06:13:38.951Z,1011.03
2018-01-24T06:14:38.871Z,1010.99
2018-01-24T06:16:32.006Z,1010.99
2018-01-24T06:17:31.904Z,1010.94
2018-01-24T06:19:24.980Z,1010.96
2018-01-24T06:20:24.923Z,1010.94
2018-01-24T06:22:18.036Z,1010.88
2018-01-24T06:23:17.935Z,1010.94
2018-01-24T06:25:11.024Z,1010.89
2018-01-24T06:26:10.955Z,1010.89
2018-01-24T06:28:04.202Z,1010.92
2018-01-24T06:29:03.979Z,1010.92
2018-01-24T06:30:57.107Z,1010.82
2018-01-24T06:31:57.001Z,1010.86
2018-01-24T06:33:50.088Z,1010.82
2018-01-24T06:34:50.023Z,1010.83
2018-01-24T06:36:43.214Z,1010.80
2018-01-24T06:37:43.165Z,1010.82
2018-01-24T06:39:38.237Z,1010.79
2018-01-24T06:40:38.169Z,1010.84
2018-01-24T06:42:32.423Z,1010.86
2018-01-24T06:43:32.299Z,1010.75
2018-01-24T06:45:26.193Z,1010.77
2018-01-24T06:46:26.172Z,1010.72
2018-01-24T06:48:20.431Z,1010.86
2018-01-24T06:49:20.337Z,1010.82
2018-01-24T06:51:14.275Z,1010.84
2018-01-24T06:52:14.174Z,1010.76
2018-01-24T06:54:07.232Z,1010.83
2018-01-24T06:55:07.188Z,1010.77
2018-01-24T06:57:00.300Z,1010.73
2018-01-24T06:58:00.205Z,1010.74
2018-01-24T06:59:53.278Z,1010.79
2018-01-24T07:00:54.030Z,1010.82
2018-01-24T07:02:46.388Z,1010.71
2018-01-24T07:03:46.233Z,1010.81
2018-01-24T07:05:39.318Z,1010.70
2018-01-24T07:06:39.253Z,1010.67
2018-01-24T07:08:32.382Z,1010.76
2018-01-24T07:09:32.280Z,1010.67
2018-01-24T07:11:25.712Z,1010.68
2018-01-24T07:12:25.299Z,1010.64
2018-01-24T07:14:18.429Z,1010.58
2018-01-24T07:15:18.328Z,1010.59
2018-01-24T07:17:11.408Z,1010.62
2018-01-24T07:18:12.207Z,1010.65
2018-01-24T07:20:04.460Z,1010.65
2018-01-24T07:21:04.514Z,1010.60
2018-01-24T07:22:57.510Z,1010.60
2018-01-24T07:23:57.399Z,1010.65
2018-01-24T07:25:50.525Z,1010.68
2018-01-24T07:26:50.421Z,1010.66
2018-01-24T07:28:43.542Z,1010.71
2018-01-24T07:29:43.448Z,1010.69
2018-01-24T07:31:36.561Z,1010.67
2018-01-24T07:32:36.462Z,1010.64
2018-01-24T07:34:29.546Z,1010.54
2018-01-24T07:36:42.588Z,1010.57
2018-01-24T07:37:42.496Z,1010.59
2018-01-24T07:41:08.605Z,1010.60
2018-01-24T07:42:08.513Z,1010.63
2018-01-24T07:44:01.646Z,1010.55
2018-01-24T07:45:01.532Z,1010.60
2018-01-24T07:47:15.629Z,1010.61
2018-01-24T07:47:54.556Z,1010.59
2018-01-24T07:49:47.639Z,1010.56
2018-01-24T07:50:47.701Z,1010.63
2018-01-24T07:52:40.681Z,1010.48
2018-01-24T07:53:40.631Z,1010.58
2018-01-24T07:55:33.708Z,1010.53
2018-01-24T07:56:33.643Z,1010.60
2018-01-24T07:58:26.757Z,1010.55
2018-01-24T07:59:26.662Z,1010.59
2018-01-24T08:00:26.602Z,1010.60
2018-01-24T08:01:26.588Z,1010.65
2018-01-24T08:02:26.523Z,1010.59
2018-01-24T08:03:26.467Z,1010.65
2018-01-24T08:04:26.397Z,1010.73
2018-01-24T08:05:26.346Z,1010.60
2018-01-24T08:06:26.934Z,1010.66
2018-01-24T08:07:26.941Z,1010.65
2018-01-24T08:08:41.080Z,1010.63
2018-01-24T08:09:26.086Z,1010.58
2018-01-24T08:10:26.029Z,1010.59
2018-01-24T08:11:25.990Z,1010.53
2018-01-24T08:12:25.925Z,1010.59
2018-01-24T08:13:25.862Z,1010.56
2018-01-24T08:14:25.799Z,1010.57
2018-01-24T08:15:25.740Z,1010.60
2018-01-24T08:18:06.402Z,1010.57
2018-01-24T08:18:57.824Z,1010.54
2018-01-24T08:20:50.898Z,1010.59
2018-01-24T08:21:52.092Z,1010.54
2018-01-24T08:23:44.747Z,1010.49
2018-01-24T08:24:43.825Z,1010.48
2018-01-24T08:26:36.909Z,1010.44
2018-01-24T08:27:36.840Z,1010.46
2018-01-24T08:29:29.955Z,1010.44
2018-01-24T08:30:29.863Z,1010.37
2018-01-24T08:32:22.949Z,1010.36
2018-01-24T08:33:22.887Z,1010.35
2018-01-24T08:35:15.999Z,1010.32
2018-01-24T08:36:15.907Z,1010.31
2018-01-24T08:38:08.990Z,1010.41
2018-01-24T08:39:08.929Z,1010.37
2018-01-24T08:41:02.040Z,1010.33
2018-01-24T08:42:01.949Z,1010.29
2018-01-24T08:43:55.091Z,1010.40
2018-01-24T08:44:55.000Z,1010.28
2018-01-24T08:46:48.054Z,1010.26
2018-01-24T08:47:47.989Z,1010.27
2018-01-24T08:49:41.120Z,1010.28
2018-01-24T08:50:41.030Z,1010.24
2018-01-24T08:52:34.113Z,1010.29
2018-01-24T08:53:34.052Z,1010.32
2018-01-24T08:55:27.165Z,1010.25
2018-01-24T08:56:27.072Z,1010.30
2018-01-24T08:58:20.156Z,1010.19
2018-01-24T08:59:20.092Z,1010.28
2018-01-24T09:01:13.208Z,1010.26
2018-01-24T09:02:13.119Z,1010.27
2018-01-24T09:04:06.240Z,1010.25
2018-01-24T09:05:06.133Z,1010.21
2018-01-24T09:06:59.251Z,1010.18
2018-01-24T09:07:59.163Z,1010.15
2018-01-24T09:09:52.278Z,1010.16
2018-01-24T09:10:52.375Z,1010.14
2018-01-24T09:12:47.506Z,1010.09
2018-01-24T09:13:45.201Z,1010.10
2018-01-24T09:15:38.812Z,1010.10
2018-01-24T09:16:38.232Z,1010.07
2018-01-24T09:18:31.657Z,1010.05
2018-01-24T09:19:31.250Z,1010.07
2018-01-24T09:21:24.374Z,1010.09
2018-01-24T09:22:24.272Z,1010.09
2018-01-24T09:23:24.215Z,1010.05
2018-01-24T09:24:24.162Z,1010.06
2018-01-24T09:25:24.100Z,1010.09
2018-01-24T09:26:24.044Z,1010.07
2018-01-24T09:27:23.987Z,1010.08
2018-01-24T09:28:23.931Z,1009.98
2018-01-24T09:29:23.871Z,1010.04
2018-01-24T09:30:24.560Z,1009.99
2018-01-24T09:31:23.787Z,1010.03
2018-01-24T09:32:23.725Z,1010.00
2018-01-24T09:33:24.583Z,1010.04
2018-01-24T09:35:03.096Z,1009.98
2018-01-24T09:35:33.587Z,1010.00
2018-01-24T09:36:25.083Z,1010.11
2018-01-24T09:37:23.460Z,1010.05
2018-01-24T09:38:23.398Z,1009.99
2018-01-24T09:39:24.570Z,1009.93
2018-01-24T09:40:29.077Z,1009.86
2018-01-24T09:41:26.191Z,1009.93
2018-01-24T09:42:23.160Z,1009.91
2018-01-24T09:43:23.100Z,1009.81
2018-01-24T09:44:23.134Z,1009.95
2018-01-24T09:45:43.995Z,1009.90
2018-01-24T09:46:22.948Z,1009.90
2018-01-24T09:47:22.904Z,1009.84
2018-01-24T09:48:22.825Z,1009.86
2018-01-24T09:49:22.770Z,1009.81
2018-01-24T09:50:22.711Z,1009.85
2018-01-24T09:51:22.772Z,1009.83
2018-01-24T09:52:23.571Z,1009.80
2018-01-24T09:54:15.610Z,1009.92
2018-01-24T09:55:15.515Z,1009.84
2018-01-24T09:57:08.627Z,1009.81
2018-01-24T09:58:08.530Z,1009.80
2018-01-24T10:00:02.840Z,1009.83
2018-01-24T10:01:01.743Z,1009.84
2018-01-24T10:02:54.664Z,1010.11
2018-01-24T10:03:56.336Z,1009.81
2018-01-24T10:05:48.976Z,1009.86
2018-01-24T10:06:47.687Z,1009.86
2018-01-24T10:08:40.706Z,1009.86
2018-01-24T10:09:41.400Z,1009.79
2018-01-24T10:11:33.731Z,1009.77
2018-01-24T10:12:33.636Z,1009.78
2018-01-24T10:14:26.718Z,1009.78
2018-01-24T10:15:26.656Z,1009.80
2018-01-24T10:17:19.776Z,1009.66
2018-01-24T10:18:19.675Z,1009.67
2018-01-24T10:20:12.761Z,1009.62
2018-01-24T10:21:12.734Z,1009.56
2018-01-24T10:23:06.018Z,1009.66
2018-01-24T10:24:05.722Z,1009.61
2018-01-24T10:25:58.806Z,1009.53
2018-01-24T10:26:58.744Z,1009.51
2018-01-24T10:28:51.856Z,1009.43
2018-01-24T10:29:51.763Z,1009.50
2018-01-24T10:31:44.849Z,1009.44
2018-01-24T10:32:44.792Z,1009.33
2018-01-24T10:34:37.905Z,1009.38
2018-01-24T10:35:37.808Z,1009.34
2018-01-24T10:36:37.752Z,1009.27
2018-01-24T10:37:37.695Z,1009.30
2018-01-24T10:38:37.640Z,1009.29
2018-01-24T10:39:37.587Z,1009.23
2018-01-24T10:40:37.703Z,1009.18
2018-01-24T10:41:38.100Z,1009.36
2018-01-24T10:42:37.414Z,1009.35
2018-01-24T10:43:37.357Z,1009.27
2018-01-24T10:44:37.309Z,1009.33
2018-01-24T10:45:37.246Z,1009.23
2018-01-24T10:46:37.189Z,1009.18
2018-01-24T10:47:37.134Z,1009.09
2018-01-24T10:48:37.075Z,1009.18
2018-01-24T10:49:37.018Z,1009.18
2018-01-24T10:50:37.103Z,1009.24
2018-01-24T10:51:36.910Z,1008.96
2018-01-24T10:52:36.853Z,1009.15
2018-01-24T10:53:36.795Z,1008.99
2018-01-24T10:54:36.739Z,1009.06
2018-01-24T10:55:36.684Z,1009.19
2018-01-24T10:56:36.629Z,1009.11
2018-01-24T10:57:36.572Z,1009.16
2018-01-24T10:58:36.517Z,1009.11
2018-01-24T10:59:36.463Z,1009.05
2018-01-24T11:00:36.559Z,1009.09
2018-01-24T11:01:36.354Z,1009.08
2018-01-24T11:02:36.292Z,1009.14
2018-01-24T11:03:36.243Z,1009.27
2018-01-24T11:04:36.184Z,1009.08
2018-01-24T11:05:36.129Z,1008.95
2018-01-24T11:06:36.072Z,1008.97
2018-01-24T11:07:36.020Z,1008.89
2018-01-24T11:08:35.961Z,1008.83
2018-01-24T11:09:35.911Z,1008.71
2018-01-24T11:10:36.015Z,1008.82
2018-01-24T11:11:35.795Z,1008.77
2018-01-24T11:12:35.739Z,1008.72
2018-01-24T11:13:35.685Z,1008.80
2018-01-24T11:14:35.631Z,1008.84
2018-01-24T11:15:36.607Z,1008.73
2018-01-24T11:16:35.521Z,1008.86
2018-01-24T11:17:35.464Z,1008.84
2018-01-24T11:18:35.412Z,1008.68
2018-01-24T11:19:35.353Z,1008.71
2018-01-24T11:20:35.471Z,1008.91
2018-01-24T11:21:35.248Z,1008.83
2018-01-24T11:22:35.189Z,1008.66
2018-01-24T11:23:35.134Z,1008.65
2018-01-24T11:24:35.080Z,1008.61
2018-01-24T11:25:35.022Z,1008.61
2018-01-24T11:26:34.974Z,1008.53
2018-01-24T11:27:34.918Z,1008.50
2018-01-24T11:28:34.860Z,1008.54
2018-01-24T11:29:34.804Z,1008.43
2018-01-24T11:30:56.703Z,1008.56
2018-01-24T11:31:34.719Z,1008.50
2018-01-24T11:32:34.659Z,1008.49
2018-01-24T11:33:36.105Z,1008.43
2018-01-24T11:34:36.606Z,1008.48
2018-01-24T11:38:39.325Z,1008.36
2018-01-24T11:41:11.290Z,1008.14
2018-01-24T11:42:14.388Z,1008.07
2018-01-24T11:44:29.772Z,1008.12
2018-01-24T11:45:03.299Z,1008.20
2018-01-24T11:46:56.745Z,1008.12
2018-01-24T11:47:56.323Z,1008.08
2018-01-24T11:49:49.398Z,1008.01
2018-01-24T11:50:49.402Z,1007.98
2018-01-24T11:53:15.278Z,1008.09
2018-01-24T11:53:42.408Z,1007.99
2018-01-24T11:55:35.512Z,1007.98
2018-01-24T11:56:35.376Z,1008.05
2018-01-24T12:00:00.631Z,1007.78
2018-01-24T12:01:00.436Z,1007.86
2018-01-24T12:02:53.645Z,1007.80
2018-01-24T12:03:53.431Z,1007.71
2018-01-24T12:05:46.511Z,1007.71
2018-01-24T12:06:49.298Z,1007.67
2018-01-24T12:08:39.622Z,1007.62
2018-01-24T12:09:40.234Z,1007.54
2018-01-24T12:11:32.563Z,1007.54
2018-01-24T12:12:33.275Z,1007.58
2018-01-24T12:13:32.492Z,1007.57
2018-01-24T12:14:32.419Z,1007.55
2018-01-24T12:15:32.332Z,1007.54
2018-01-24T12:16:32.313Z,1007.50
2018-01-24T12:17:32.245Z,1007.63
2018-01-24T12:18:32.850Z,1007.57
2018-01-24T12:19:32.173Z,1007.42
2018-01-24T12:20:32.024Z,1007.46
2018-01-24T12:21:31.972Z,1007.51
2018-01-24T12:22:31.962Z,1007.35
2018-01-24T12:23:31.866Z,1007.35
2018-01-24T12:24:31.833Z,1007.36
2018-01-24T12:25:31.805Z,1007.38
2018-01-24T12:26:31.747Z,1007.38
2018-01-24T12:27:31.633Z,1007.26
2018-01-24T12:28:31.577Z,1007.28
2018-01-24T12:29:31.524Z,1007.26
2018-01-24T12:30:31.468Z,1007.24
2018-01-24T12:31:31.409Z,1007.31
2018-01-24T12:32:31.353Z,1007.22
2018-01-24T12:33:31.298Z,1007.17
2018-01-24T12:34:31.242Z,1007.10
2018-01-24T12:35:31.184Z,1007.16
2018-01-24T12:36:31.201Z,1007.23
2018-01-24T12:37:52.179Z,1007.20
2018-01-24T12:38:32.277Z,1007.17
2018-01-24T12:39:31.083Z,1007.31
2018-01-24T12:41:30.848Z,1007.13
2018-01-24T12:42:30.791Z,1007.10
2018-01-24T12:43:30.736Z,1007.11
2018-01-24T12:44:51.684Z,1007.14
2018-01-24T12:45:30.626Z,1007.02
2018-01-24T12:46:30.575Z,1007.06
2018-01-24T12:47:30.514Z,1007.07
2018-01-24T12:48:30.553Z,1007.05
2018-01-24T12:49:30.420Z,1007.02
2018-01-24T12:50:30.360Z,1006.87
2018-01-24T12:51:30.303Z,1006.98
2018-01-24T12:52:30.365Z,1006.94
2018-01-24T12:53:30.169Z,1006.99
2018-01-24T12:54:30.116Z,1006.99
2018-01-24T12:55:30.057Z,1006.99
2018-01-24T12:56:29.997Z,1006.95
2018-01-24T12:57:29.945Z,1006.83
2018-01-24T12:58:29.887Z,1006.88
2018-01-24T12:59:29.834Z,1006.90
2018-01-24T13:00:29.774Z,1006.90
2018-01-24T13:01:29.717Z,1006.89
2018-01-24T13:02:53.331Z,1006.84
2018-01-24T13:05:41.318Z,1006.86
2018-01-24T13:06:01.856Z,1006.77
2018-01-24T13:07:55.285Z,1006.74
2018-01-24T13:08:54.876Z,1006.78
2018-01-24T13:11:05.773Z,1006.79
2018-01-24T13:11:48.735Z,1006.80
2018-01-24T13:12:47.892Z,1006.86
2018-01-24T13:13:47.762Z,1006.77
2018-01-24T13:14:48.675Z,1006.97
2018-01-24T13:15:47.707Z,1006.75
2018-01-24T13:16:47.591Z,1006.72
2018-01-24T13:17:47.537Z,1006.75
2018-01-24T13:19:16.231Z,1006.70
2018-01-24T13:19:47.424Z,1006.70
2018-01-24T13:20:47.366Z,1006.61
2018-01-24T13:21:47.313Z,1006.61
2018-01-24T13:22:47.252Z,1006.50
2018-01-24T13:23:53.740Z,1006.56
2018-01-24T13:24:47.141Z,1006.54
2018-01-24T13:28:51.155Z,1006.56
2018-01-24T13:29:51.040Z,1006.48
2018-01-24T13:30:51.127Z,1006.50
2018-01-24T13:31:50.931Z,1006.51
2018-01-24T13:32:50.869Z,1006.46
2018-01-24T13:33:50.815Z,1006.50
2018-01-24T13:34:50.757Z,1006.50
2018-01-24T13:35:50.703Z,1006.48
2018-01-24T13:36:50.644Z,1006.48
2018-01-24T13:37:50.587Z,1006.44
2018-01-24T13:38:50.530Z,1006.44
2018-01-24T13:39:50.474Z,1006.36
2018-01-24T13:40:50.420Z,1006.43
2018-01-24T13:41:50.362Z,1006.42
2018-01-24T13:42:50.318Z,1006.37
2018-01-24T13:43:50.247Z,1006.35
2018-01-24T13:44:50.192Z,1006.26
2018-01-24T13:45:50.138Z,1006.29
2018-01-24T13:46:50.080Z,1006.25
2018-01-24T13:47:50.028Z,1006.24
2018-01-24T13:48:49.966Z,1006.12
2018-01-24T13:49:49.911Z,1006.29
2018-01-24T13:50:49.857Z,1006.20
2018-01-24T13:51:49.802Z,1006.24
2018-01-24T13:52:49.742Z,1006.28
2018-01-24T13:53:49.684Z,1006.23
2018-01-24T13:54:49.631Z,1006.16
2018-01-24T13:55:49.576Z,1006.21
2018-01-24T13:56:49.519Z,1006.20
2018-01-24T13:57:49.461Z,1006.18
2018-01-24T13:58:49.401Z,1006.13
2018-01-24T13:59:49.346Z,1006.19
2018-01-24T14:00:49.292Z,1006.16
2018-01-24T14:01:49.233Z,1006.14
2018-01-24T14:02:49.178Z,1006.16
2018-01-24T14:03:49.119Z,1006.09
2018-01-24T14:04:49.072Z,1006.15
2018-01-24T14:05:49.006Z,1006.07
2018-01-24T14:06:48.950Z,1006.14
2018-01-24T14:07:48.895Z,1006.07
2018-01-24T14:08:48.842Z,1006.09
2018-01-24T14:09:48.781Z,1006.04
2018-01-24T14:10:48.752Z,1006.01
2018-01-24T14:11:48.688Z,1006.04
2018-01-24T14:12:48.627Z,1005.95
2018-01-24T14:14:09.546Z,1005.97
2018-01-24T14:14:48.498Z,1005.99
2018-01-24T14:15:48.485Z,1005.95
2018-01-24T14:16:48.385Z,1005.98
2018-01-24T14:17:48.328Z,1005.97
2018-01-24T14:18:48.271Z,1005.93
2018-01-24T14:19:48.215Z,1005.90
2018-01-24T14:20:48.163Z,1005.84
2018-01-24T14:21:48.138Z,1005.85
2018-01-24T14:22:48.046Z,1005.86
2018-01-24T14:23:47.998Z,1005.79
2018-01-24T14:24:47.933Z,1005.90
2018-01-24T14:25:47.878Z,1005.84
2018-01-24T14:26:47.821Z,1005.74
2018-01-24T14:27:47.763Z,1005.65
2018-01-24T14:28:47.705Z,1005.72
2018-01-24T14:29:47.650Z,1005.74
2018-01-24T14:30:47.600Z,1005.69
2018-01-24T14:31:47.539Z,1005.67
2018-01-24T14:32:48.110Z,1005.66
2018-01-24T14:33:47.423Z,1005.60
2018-01-24T14:34:47.368Z,1005.76
2018-01-24T14:35:47.311Z,1005.61
2018-01-24T14:36:47.256Z,1005.53
2018-01-24T14:37:47.197Z,1005.49
2018-01-24T14:38:47.141Z,1005.50
2018-01-24T14:39:47.084Z,1005.49
2018-01-24T14:40:47.030Z,1005.50
2018-01-24T14:41:46.971Z,1005.51
2018-01-24T14:42:46.922Z,1005.53
2018-01-24T14:43:46.858Z,1005.57
2018-01-24T14:44:46.806Z,1005.57
2018-01-24T14:45:46.748Z,1005.61
2018-01-24T14:46:46.688Z,1005.59
2018-01-24T14:47:46.634Z,1005.55
2018-01-24T14:48:46.586Z,1005.67
2018-01-24T14:49:46.520Z,1005.62
2018-01-24T14:50:46.496Z,1005.70
2018-01-24T14:51:46.407Z,1005.72
2018-01-24T14:52:46.355Z,1005.77
2018-01-24T14:53:46.295Z,1005.72
2018-01-24T14:54:46.239Z,1005.76
2018-01-24T14:55:46.180Z,1005.78
2018-01-24T14:56:46.126Z,1005.77
2018-01-24T14:57:46.071Z,1005.79
2018-01-24T14:58:46.013Z,1005.82
2018-01-24T14:59:45.954Z,1005.77
2018-01-24T15:00:45.909Z,1005.78
2018-01-24T15:01:45.851Z,1005.79
2018-01-24T15:02:45.788Z,1005.81
2018-01-24T15:03:45.727Z,1005.79
2018-01-24T15:04:45.678Z,1005.78
2018-01-24T15:05:45.618Z,1005.69
2018-01-24T15:06:45.560Z,1005.70
2018-01-24T15:07:45.503Z,1005.75
2018-01-24T15:08:45.447Z,1005.74
2018-01-24T15:09:45.391Z,1005.78
2018-01-24T15:10:45.337Z,1005.81
2018-01-24T15:11:45.278Z,1005.77
2018-01-24T15:12:45.254Z,1005.80
2018-01-24T15:13:45.163Z,1005.70
2018-01-24T15:14:45.106Z,1005.68
2018-01-24T15:15:45.050Z,1005.78
2018-01-24T15:16:44.992Z,1005.76
2018-01-24T15:17:44.937Z,1005.77
2018-01-24T15:18:44.885Z,1005.73
2018-01-24T15:19:44.822Z,1005.78
2018-01-24T15:20:44.935Z,1005.79
2018-01-24T15:21:44.719Z,1005.79
2018-01-24T15:22:44.654Z,1005.74
2018-01-24T15:23:44.598Z,1005.74
2018-01-24T15:24:44.545Z,1005.66
2018-01-24T15:25:44.485Z,1005.65
2018-01-24T15:26:44.436Z,1005.72
2018-01-24T15:27:44.374Z,1005.59
2018-01-24T15:28:44.315Z,1005.75
2018-01-24T15:29:44.258Z,1005.82
2018-01-24T15:30:44.206Z,1005.64
2018-01-24T15:31:44.144Z,1005.70
2018-01-24T15:32:44.098Z,1005.63
2018-01-24T15:33:44.033Z,1005.56
2018-01-24T15:34:43.976Z,1005.61
2018-01-24T15:35:44.011Z,1005.77
2018-01-24T15:36:43.864Z,1005.59
2018-01-24T15:37:43.809Z,1005.62
2018-01-24T15:38:43.752Z,1005.63
2018-01-24T15:39:43.690Z,1005.45
2018-01-24T15:40:43.644Z,1005.56
2018-01-24T15:41:43.578Z,1005.49
2018-01-24T15:42:43.521Z,1005.48
2018-01-24T15:43:43.465Z,1005.63
2018-01-24T15:44:43.408Z,1005.61
2018-01-24T15:45:43.351Z,1005.46
2018-01-24T15:46:43.310Z,1005.50
2018-01-24T15:47:43.239Z,1005.53
2018-01-24T15:48:43.181Z,1005.51
2018-01-24T15:49:43.126Z,1005.55
2018-01-24T15:50:43.098Z,1005.46
2018-01-24T15:51:43.012Z,1005.62
2018-01-24T15:52:42.956Z,1005.44
2018-01-24T15:53:42.897Z,1005.46
2018-01-24T15:54:42.846Z,1005.50
2018-01-24T15:55:42.784Z,1005.38
2018-01-24T15:56:42.732Z,1005.56
2018-01-24T15:57:42.670Z,1005.48
2018-01-24T15:58:42.615Z,1005.56
2018-01-24T15:59:42.556Z,1005.63
2018-01-24T16:00:42.555Z,1005.67
2018-01-24T16:01:42.444Z,1005.51
2018-01-24T16:02:42.385Z,1005.59
2018-01-24T16:03:42.329Z,1005.55
2018-01-24T16:04:42.271Z,1005.56
2018-01-24T16:05:42.216Z,1005.65
2018-01-24T16:06:42.156Z,1005.50
2018-01-24T16:07:42.101Z,1005.43
2018-01-24T16:08:42.044Z,1005.58
2018-01-24T16:09:41.990Z,1005.65
2018-01-24T16:10:42.010Z,1005.39
2018-01-24T16:11:41.874Z,1005.45
2018-01-24T16:12:41.822Z,1005.45
2018-01-24T16:13:41.761Z,1005.40
2018-01-24T16:14:41.706Z,1005.44
2018-01-24T16:15:41.647Z,1005.47
2018-01-24T16:16:41.590Z,1005.54
2018-01-24T16:18:35.532Z,1005.38
2018-01-24T16:19:35.065Z,1005.43
2018-01-24T16:21:28.319Z,1005.35
2018-01-24T16:22:28.209Z,1005.34
2018-01-24T16:24:21.305Z,1005.23